createdAt,value
2018-04-24T00:00:47.665Z,16.20
2018-04-24T00:03:15.807Z,16.30
2018-04-24T00:05:44.730Z,16.20
2018-04-24T00:08:13.677Z,16.20
2018-04-24T00:10:41.818Z,16.30
2018-04-24T00:13:09.956Z,16.30
2018-04-24T00:15:38.097Z,16.30
2018-04-24T00:18:06.264Z,16.30
2018-04-24T00:20:34.400Z,16.40
2018-04-24T00:23:02.570Z,16.50
2018-04-24T00:25:30.704Z,16.60
2018-04-24T00:27:59.617Z,16.70
2018-04-24T00:30:27.764Z,16.60
2018-04-24T00:32:55.901Z,16.60
2018-04-24T00:35:24.032Z,16.60
2018-04-24T00:50:52.200Z,16.50
2018-04-24T00:53:38.161Z,16.20
2018-04-24T00:56:06.344Z,16.30
2018-04-24T00:58:35.276Z,16.40
2018-04-24T01:01:03.407Z,16.30
2018-04-24T01:03:31.538Z,16.40
2018-04-24T01:05:59.700Z,16.40
2018-04-24T01:08:27.847Z,16.40
2018-04-24T01:10:55.990Z,16.40
2018-04-24T01:13:24.133Z,16.40
2018-04-24T01:15:52.278Z,16.40
2018-04-24T01:18:20.412Z,16.40
2018-04-24T01:20:48.553Z,16.40
2018-04-24T01:23:16.757Z,16.40
2018-04-24T01:25:44.901Z,16.30
2018-04-24T01:28:13.032Z,16.30
2018-04-24T01:30:41.934Z,16.20
2018-04-24T01:33:10.832Z,16.30
2018-04-24T01:35:38.985Z,16.20
2018-04-24T01:38:07.885Z,16.20
2018-04-24T01:40:36.784Z,16.20
2018-04-24T01:43:05.705Z,16.20
2018-04-24T01:45:33.844Z,16.10
2018-04-24T01:48:02.746Z,16.20
2018-04-24T01:50:30.895Z,16.10
2018-04-24T01:52:59.799Z,16.30
2018-04-24T01:55:28.702Z,16.30
2018-04-24T01:57:56.864Z,16.20
2018-04-24T02:00:25.015Z,16.30
2018-04-24T02:02:53.154Z,16.30
2018-04-24T02:05:21.285Z,16.30
2018-04-24T02:07:50.200Z,16.30
2018-04-24T02:10:18.360Z,16.30
2018-04-24T02:12:47.275Z,16.50
2018-04-24T02:15:15.413Z,16.40
2018-04-24T02:17:44.321Z,16.40
2018-04-24T02:20:12.461Z,16.40
2018-04-24T02:22:40.681Z,16.40
2018-04-24T02:25:08.783Z,16.40
2018-04-24T02:27:37.685Z,16.50
2018-04-24T02:30:05.842Z,16.40
2018-04-24T02:32:34.001Z,16.50
2018-04-24T02:35:02.181Z,16.50
2018-04-24T02:37:30.353Z,16.50
2018-04-24T02:39:58.523Z,16.50
2018-04-24T02:42:26.721Z,16.50
2018-04-24T02:44:54.912Z,16.40
2018-04-24T02:47:23.084Z,16.30
2018-04-24T02:49:51.246Z,16.30
2018-04-24T02:52:19.420Z,16.30
2018-04-24T02:54:47.583Z,16.30
2018-04-24T02:57:15.757Z,16.30
2018-04-24T02:59:43.926Z,16.30
2018-04-24T03:02:12.091Z,16.30
2018-04-24T03:04:40.282Z,16.30
2018-04-24T03:07:08.461Z,16.30
2018-04-24T03:09:37.389Z,16.30
2018-04-24T03:12:06.330Z,16.30
2018-04-24T03:14:34.504Z,16.20
2018-04-24T03:17:02.731Z,16.30
2018-04-24T03:19:31.656Z,16.30
2018-04-24T03:21:59.851Z,16.20
2018-04-24T03:24:28.022Z,16.30
2018-04-24T03:26:56.186Z,16.30
2018-04-24T03:29:24.373Z,16.30
2018-04-24T03:31:52.547Z,16.40
2018-04-24T03:34:20.731Z,16.30
2018-04-24T03:36:48.929Z,16.30
2018-04-24T03:39:17.105Z,16.30
2018-04-24T03:41:45.257Z,16.20
2018-04-24T03:44:13.427Z,16.30
2018-04-24T03:46:41.602Z,16.30
2018-04-24T03:49:09.766Z,16.20
2018-04-24T03:51:37.946Z,16.20
2018-04-24T03:54:06.139Z,16.20
2018-04-24T03:56:34.313Z,16.20
2018-04-24T03:59:02.482Z,16.20
2018-04-24T04:01:30.656Z,16.20
2018-04-24T04:03:58.828Z,16.30
2018-04-24T04:06:26.985Z,16.30
2018-04-24T04:08:55.152Z,16.30
2018-04-24T04:11:23.316Z,16.30
2018-04-24T04:13:51.484Z,16.30
2018-04-24T04:16:19.659Z,16.30
2018-04-24T04:19:05.800Z,16.30
2018-04-24T04:21:51.876Z,16.30
2018-04-24T04:27:25.001Z,16.30
2018-04-24T04:29:53.186Z,16.30
2018-04-24T04:32:21.352Z,16.40
2018-04-24T04:34:49.521Z,16.30
2018-04-24T04:37:17.692Z,16.30
2018-04-24T04:39:45.861Z,16.30
2018-04-24T04:42:14.023Z,16.40
2018-04-24T04:44:42.200Z,16.40
2018-04-24T04:47:10.379Z,16.40
2018-04-24T04:49:38.552Z,16.40
2018-04-24T04:52:06.710Z,16.50
2018-04-24T04:54:34.876Z,16.50
2018-04-24T04:57:03.038Z,16.60
2018-04-24T04:59:31.982Z,16.60
2018-04-24T05:02:00.165Z,16.60
2018-04-24T05:04:28.347Z,16.60
2018-04-24T05:06:56.511Z,16.60
2018-04-24T05:09:24.690Z,16.60
2018-04-24T05:11:52.867Z,16.60
2018-04-24T05:14:21.033Z,16.60
2018-04-24T05:16:49.958Z,16.70
2018-04-24T05:19:18.893Z,16.80
2018-04-24T05:21:47.063Z,16.70
2018-04-24T05:24:15.234Z,16.80
2018-04-24T05:26:43.460Z,16.90
2018-04-24T05:29:11.626Z,16.90
2018-04-24T05:31:39.819Z,17.00
2018-04-24T05:34:08.043Z,17.10
2018-04-24T05:36:36.217Z,17.10
2018-04-24T05:39:04.436Z,17.20
2018-04-24T05:41:32.619Z,17.30
2018-04-24T05:44:00.822Z,17.40
2018-04-24T05:46:28.998Z,17.50
2018-04-24T05:48:57.933Z,17.60
2018-04-24T05:51:26.159Z,17.50
2018-04-24T05:53:55.086Z,17.70
2018-04-24T05:56:23.257Z,17.60
2018-04-24T05:58:51.425Z,17.70
2018-04-24T06:01:19.584Z,17.70
2018-04-24T06:03:47.774Z,17.80
2018-04-24T06:06:15.928Z,17.80
2018-04-24T06:08:44.124Z,17.90
2018-04-24T06:11:12.285Z,17.90
2018-04-24T06:13:40.448Z,18.00
2018-04-24T06:16:09.391Z,17.90
2018-04-24T06:18:37.557Z,17.90
2018-04-24T06:21:05.721Z,17.90
2018-04-24T06:23:33.891Z,17.80
2018-04-24T06:26:02.054Z,17.80
2018-04-24T06:28:30.308Z,17.80
2018-04-24T06:30:58.441Z,17.90
2018-04-24T06:33:26.617Z,17.80
2018-04-24T06:35:54.795Z,17.80
2018-04-24T06:38:23.002Z,17.90
2018-04-24T06:40:51.974Z,18.00
2018-04-24T06:43:20.186Z,17.90
2018-04-24T06:45:48.385Z,18.10
2018-04-24T06:48:16.557Z,18.30
2018-04-24T06:50:44.794Z,18.50
2018-04-24T06:53:13.728Z,18.70
2018-04-24T06:55:41.947Z,18.70
2018-04-24T06:58:10.152Z,18.70
2018-04-24T07:00:39.093Z,18.90
2018-04-24T07:03:07.282Z,18.80
2018-04-24T07:05:35.463Z,19.00
2018-04-24T07:08:03.652Z,19.20
2018-04-24T07:10:32.586Z,19.60
2018-04-24T07:13:00.761Z,19.60
2018-04-24T07:15:28.934Z,19.80
2018-04-24T07:17:57.140Z,19.80
2018-04-24T07:20:25.330Z,19.80
2018-04-24T07:22:53.507Z,19.80
2018-04-24T07:25:21.702Z,19.90
2018-04-24T07:27:50.646Z,20.00
2018-04-24T07:30:18.816Z,19.90
2018-04-24T07:32:47.088Z,20.00
2018-04-24T07:35:15.213Z,20.10
2018-04-24T07:37:44.185Z,20.40
2018-04-24T07:40:12.357Z,20.30
2018-04-24T07:42:40.529Z,20.40
2018-04-24T07:45:08.689Z,20.40
2018-04-24T07:47:36.870Z,20.40
2018-04-24T07:50:05.053Z,20.40
2018-04-24T07:52:33.268Z,20.30
2018-04-24T07:55:01.466Z,20.30
2018-04-24T07:57:29.688Z,20.20
2018-04-24T07:59:58.640Z,20.00
2018-04-24T08:02:26.806Z,19.90
2018-04-24T08:04:55.001Z,19.90
2018-04-24T08:07:23.185Z,19.70
2018-04-24T08:09:51.354Z,19.60
2018-04-24T08:12:19.524Z,19.50
2018-04-24T08:14:47.698Z,19.40
2018-04-24T08:17:15.870Z,19.30
2018-04-24T08:19:44.065Z,19.30
2018-04-24T08:22:12.243Z,19.30
2018-04-24T08:24:40.440Z,19.20
2018-04-24T08:27:09.480Z,19.00
2018-04-24T08:29:37.653Z,18.90
2018-04-24T08:32:05.838Z,18.90
2018-04-24T08:34:33.999Z,18.90
2018-04-24T08:37:02.169Z,18.90
2018-04-24T08:39:30.335Z,18.80
2018-04-24T08:41:58.508Z,18.80
2018-04-24T08:44:26.687Z,18.80
2018-04-24T08:46:54.848Z,18.80
2018-04-24T08:49:23.027Z,18.70
2018-04-24T08:51:51.207Z,18.70
2018-04-24T08:54:19.373Z,18.70
2018-04-24T08:56:47.571Z,18.80
2018-04-24T08:59:15.727Z,18.80
2018-04-24T09:01:43.899Z,18.80
2018-04-24T09:04:12.097Z,18.80
2018-04-24T09:06:40.279Z,18.80
2018-04-24T09:09:08.454Z,18.90
2018-04-24T09:11:36.694Z,18.90
2018-04-24T09:14:04.931Z,18.90
2018-04-24T09:16:33.172Z,18.90
2018-04-24T09:19:01.339Z,19.00
2018-04-24T09:21:29.574Z,19.00
2018-04-24T09:23:58.515Z,19.20
2018-04-24T09:26:26.685Z,19.10
2018-04-24T09:28:54.860Z,19.20
2018-04-24T09:31:28.652Z,19.20
2018-04-24T09:33:56.829Z,19.30
2018-04-24T09:36:25.006Z,19.30
2018-04-24T09:38:53.185Z,19.30
2018-04-24T09:41:21.366Z,19.30
2018-04-24T09:43:49.582Z,19.30
2018-04-24T09:46:17.782Z,19.30
2018-04-24T09:48:46.712Z,19.50
2018-04-24T09:51:14.974Z,19.40
2018-04-24T09:53:43.088Z,19.60
2018-04-24T09:56:11.260Z,19.60
2018-04-24T09:58:39.450Z,19.60
2018-04-24T10:01:08.414Z,19.60
2018-04-24T10:03:36.593Z,19.50
2018-04-24T10:52:21.591Z,20.30
2018-04-24T10:54:49.781Z,20.20
2018-04-24T10:57:17.945Z,20.80
2018-04-24T10:59:46.120Z,21.30
2018-04-24T11:02:14.301Z,21.70
2018-04-24T11:04:42.469Z,22.20
2018-04-24T11:07:10.642Z,22.50
2018-04-24T11:09:38.809Z,22.80
2018-04-24T11:12:06.981Z,22.90
2018-04-24T11:14:35.171Z,23.10
2018-04-24T11:17:03.400Z,23.40
2018-04-24T11:19:32.306Z,23.90
2018-04-24T11:22:00.509Z,23.90
2018-04-24T11:24:28.686Z,24.20
2018-04-24T11:26:56.857Z,24.40
2018-04-24T11:29:25.054Z,24.60
2018-04-24T11:31:54.000Z,25.30
2018-04-24T11:34:22.173Z,25.30
2018-04-24T11:36:50.360Z,25.70
2018-04-24T11:39:18.565Z,26.30
2018-04-24T11:41:46.755Z,27.00
2018-04-24T11:44:15.694Z,27.50
2018-04-24T11:46:43.929Z,27.40
2018-04-24T11:49:12.863Z,28.50
2018-04-24T11:51:41.046Z,28.40
2018-04-24T11:54:09.221Z,28.90
2018-04-24T11:56:37.385Z,29.60
2018-04-24T11:59:05.553Z,29.80
2018-04-24T12:01:33.731Z,29.60
2018-04-24T12:04:01.900Z,29.40
2018-04-24T12:06:30.076Z,29.40
2018-04-24T12:08:58.244Z,29.70
2018-04-24T12:11:26.421Z,30.00
2018-04-24T12:13:54.580Z,30.00
2018-04-24T12:16:22.740Z,29.90
2018-04-24T12:18:51.684Z,29.80
2018-04-24T12:21:19.889Z,29.80
2018-04-24T12:23:48.828Z,31.20
2018-04-24T12:26:17.001Z,31.10
2018-04-24T12:28:45.184Z,31.80
2018-04-24T12:31:13.364Z,32.30
2018-04-24T12:33:41.530Z,32.80
2018-04-24T12:36:09.695Z,33.40
2018-04-24T12:38:37.865Z,34.70
2018-04-24T12:41:06.053Z,36.50
2018-04-24T12:43:34.223Z,38.10
2018-04-24T12:46:02.406Z,39.20
2018-04-24T12:48:30.589Z,40.20
2018-04-24T12:50:58.771Z,40.80
2018-04-24T12:53:27.002Z,39.00
2018-04-24T12:55:55.153Z,37.30
2018-04-24T12:58:24.088Z,39.00
2018-04-24T13:00:52.261Z,39.00
2018-04-24T13:03:20.436Z,39.60
2018-04-24T13:05:48.597Z,37.90
2018-04-24T13:08:16.774Z,36.90
2018-04-24T13:10:44.959Z,35.90
2018-04-24T13:13:13.121Z,34.30
2018-04-24T13:15:41.297Z,32.80
2018-04-24T13:18:09.460Z,31.60
2018-04-24T13:20:38.389Z,28.90
2018-04-24T13:23:06.553Z,28.80
2018-04-24T13:25:34.822Z,28.50
2018-04-24T13:28:02.940Z,28.00
2018-04-24T13:30:31.121Z,27.70
2018-04-24T13:32:59.304Z,27.10
2018-04-24T13:35:28.256Z,27.20
2018-04-24T13:37:56.429Z,27.10
2018-04-24T13:40:24.604Z,27.90
2018-04-24T13:42:52.781Z,28.10
2018-04-24T13:45:21.193Z,28.30
2018-04-24T13:47:49.373Z,28.10
2018-04-24T13:50:17.545Z,27.90
2018-04-24T13:52:45.728Z,27.10
2018-04-24T13:55:14.665Z,26.30
2018-04-24T13:57:42.833Z,26.20
2018-04-24T14:00:11.026Z,26.20
2018-04-24T14:02:39.216Z,26.40
2018-04-24T14:05:07.385Z,26.60
2018-04-24T14:07:35.557Z,26.60
2018-04-24T14:10:03.729Z,27.20
2018-04-24T14:12:31.908Z,27.50
2018-04-24T14:15:00.081Z,27.40
2018-04-24T14:17:28.313Z,27.30
2018-04-24T14:19:56.448Z,27.60
2018-04-24T14:22:24.623Z,28.40
2018-04-24T14:24:52.814Z,29.30
2018-04-24T14:27:21.746Z,31.30
2018-04-24T14:29:49.932Z,31.30
2018-04-24T14:32:18.109Z,32.40
2018-04-24T14:34:46.281Z,33.80
2018-04-24T14:37:14.468Z,35.40
2018-04-24T14:39:42.663Z,36.40
2018-04-24T14:42:10.849Z,36.40
2018-04-24T14:44:39.042Z,36.20
2018-04-24T14:47:07.995Z,34.60
2018-04-24T14:49:36.170Z,34.60
2018-04-24T14:52:04.332Z,33.80
2018-04-24T14:54:32.530Z,32.80
2018-04-24T14:57:00.706Z,31.50
2018-04-24T14:59:28.884Z,30.60
2018-04-24T15:01:57.065Z,30.30
2018-04-24T15:04:26.017Z,32.00
2018-04-24T15:06:54.207Z,32.00
2018-04-24T15:09:22.378Z,32.50
2018-04-24T15:11:50.543Z,33.10
2018-04-24T15:14:18.720Z,32.80
2018-04-24T15:16:46.898Z,32.70
2018-04-24T15:19:15.063Z,32.70
2018-04-24T15:21:43.249Z,32.10
2018-04-24T15:24:11.441Z,31.70
2018-04-24T15:26:40.373Z,30.70
2018-04-24T15:29:08.568Z,30.60
2018-04-24T15:31:36.752Z,30.20
2018-04-24T15:34:04.958Z,29.60
2018-04-24T15:36:33.139Z,29.20
2018-04-24T15:39:01.320Z,28.70
2018-04-24T15:41:30.272Z,28.10
2018-04-24T15:43:58.446Z,28.00
2018-04-24T15:46:26.633Z,27.90
2018-04-24T15:48:54.807Z,27.90
2018-04-24T15:51:23.148Z,28.00
2018-04-24T15:53:51.336Z,28.10
2018-04-24T15:56:19.524Z,28.20
2018-04-24T15:58:47.694Z,28.10
2018-04-24T16:01:15.868Z,28.40
2018-04-24T16:03:44.042Z,28.20
2018-04-24T16:06:12.222Z,28.00
2018-04-24T16:08:40.406Z,28.00
2018-04-24T16:11:08.607Z,28.10
2018-04-24T16:13:36.783Z,28.20
2018-04-24T16:16:04.961Z,27.90
2018-04-24T16:18:33.892Z,27.50
2018-04-24T16:21:02.065Z,27.50
2018-04-24T16:23:30.254Z,27.30
2018-04-24T16:25:58.432Z,27.40
2018-04-24T16:28:26.613Z,27.10
2018-04-24T16:30:54.820Z,27.20
2018-04-24T16:33:23.774Z,27.70
2018-04-24T16:35:51.978Z,27.60
2018-04-24T16:38:20.132Z,27.70
2018-04-24T16:40:48.296Z,27.90
2018-04-24T16:43:16.477Z,27.90
2018-04-24T16:45:44.647Z,27.80
2018-04-24T16:48:12.876Z,27.50
2018-04-24T16:50:41.809Z,27.30
2018-04-24T16:53:09.980Z,27.20
2018-04-24T16:55:38.917Z,27.30
2018-04-24T16:58:07.130Z,27.30
2018-04-24T17:00:35.316Z,27.30
2018-04-24T17:03:03.508Z,27.00
2018-04-24T17:05:31.719Z,26.80
2018-04-24T17:07:59.901Z,26.60
2018-04-24T17:10:28.854Z,26.30
2018-04-24T17:12:57.070Z,26.20
2018-04-24T17:15:26.054Z,26.00
2018-04-24T17:18:00.407Z,25.90
2018-04-24T17:20:37.568Z,25.90
2018-04-24T17:23:12.206Z,25.30
2018-04-24T17:25:47.546Z,25.20
2018-04-24T17:28:16.377Z,25.00
2018-04-24T17:31:01.909Z,24.70
2018-04-24T17:33:44.519Z,24.50
2018-04-24T17:36:13.348Z,24.30
2018-04-24T17:38:41.638Z,24.20
2018-04-24T17:41:09.804Z,24.10
2018-04-24T17:43:37.985Z,23.90
2018-04-24T17:46:06.165Z,23.80
2018-04-24T17:48:34.345Z,23.60
2018-04-24T17:51:02.529Z,23.40
2018-04-24T17:53:30.714Z,23.30
2018-04-24T17:55:58.894Z,23.10
2018-04-24T17:58:27.066Z,23.00
2018-04-24T18:00:55.241Z,22.80
2018-04-24T18:03:23.424Z,22.60
2018-04-24T18:05:51.617Z,22.50
2018-04-24T18:08:20.545Z,22.20
2018-04-24T18:10:48.720Z,22.10
2018-04-24T18:13:16.890Z,22.00
2018-04-24T18:15:45.080Z,22.00
2018-04-24T18:18:13.261Z,21.90
2018-04-24T18:20:41.432Z,21.70
2018-04-24T18:23:09.615Z,21.60
2018-04-24T18:25:37.803Z,21.40
2018-04-24T18:28:05.983Z,21.30
2018-04-24T18:30:34.157Z,21.20
2018-04-24T18:33:02.401Z,21.00
2018-04-24T18:35:30.607Z,20.90
2018-04-24T18:37:58.772Z,20.80
2018-04-24T18:40:26.964Z,20.80
2018-04-24T18:42:55.146Z,20.60
2018-04-24T18:45:24.115Z,20.40
2018-04-24T18:47:52.300Z,20.40
2018-04-24T18:50:20.503Z,20.30
2018-04-24T18:52:49.655Z,20.10
2018-04-24T18:55:17.825Z,20.10
2018-04-24T18:57:45.992Z,20.00
2018-04-24T19:00:14.178Z,20.00
2018-04-24T19:02:42.486Z,19.90
2018-04-24T19:05:11.435Z,19.90
2018-04-24T19:07:39.656Z,19.80
2018-04-24T19:10:08.607Z,19.80
2018-04-24T19:12:36.787Z,19.70
2018-04-24T19:15:04.963Z,19.70
2018-04-24T19:17:33.136Z,19.70
2018-04-24T19:20:01.328Z,19.70
2018-04-24T19:22:29.555Z,19.60
2018-04-24T19:25:03.383Z,19.60
2018-04-24T19:27:31.596Z,19.50
2018-04-24T19:29:59.774Z,19.50
2018-04-24T19:32:31.560Z,19.30
2018-04-24T19:34:59.780Z,19.30
2018-04-24T19:37:27.950Z,19.30
2018-04-24T19:40:01.673Z,19.20
2018-04-24T19:42:29.857Z,19.20
2018-04-24T19:44:58.027Z,19.10
2018-04-24T19:47:26.226Z,19.10
2018-04-24T19:50:00.766Z,19.00
2018-04-24T19:52:28.974Z,18.90
2018-04-24T19:55:02.703Z,19.00
2018-04-24T19:57:30.897Z,19.00
2018-04-24T19:59:59.836Z,18.90
2018-04-24T20:02:28.026Z,18.80
2018-04-24T20:04:56.287Z,18.90
2018-04-24T20:07:24.505Z,18.80
2018-04-24T20:09:52.690Z,18.70
2018-04-24T20:12:21.638Z,18.60
2018-04-24T20:14:49.809Z,18.60
2018-04-24T20:17:17.983Z,18.60
2018-04-24T20:19:46.160Z,18.50
2018-04-24T20:22:14.333Z,18.50
2018-04-24T20:24:42.506Z,18.50
2018-04-24T20:27:10.675Z,18.50
2018-04-24T20:29:38.848Z,18.50
2018-04-24T20:32:07.038Z,18.40
2018-04-24T20:34:35.220Z,18.30
2018-04-24T20:37:03.417Z,18.40
2018-04-24T20:39:31.592Z,18.30
2018-04-24T20:42:00.557Z,18.20
2018-04-24T20:44:28.750Z,18.10
2018-04-24T20:46:56.948Z,18.20
2018-04-24T20:49:25.894Z,18.20
2018-04-24T20:51:54.076Z,18.10
2018-04-24T20:54:22.302Z,18.20
2018-04-24T20:56:51.246Z,18.30
2018-04-24T20:59:19.451Z,18.20
2018-04-24T21:01:48.392Z,18.10
2018-04-24T21:04:16.574Z,18.00
2018-04-24T21:06:44.770Z,18.10
2018-04-24T21:09:12.959Z,18.10
2018-04-24T21:11:41.178Z,18.00
2018-04-24T21:14:09.353Z,17.90
2018-04-24T21:16:37.605Z,17.90
2018-04-24T21:19:06.547Z,17.80
2018-04-24T21:21:34.725Z,17.70
2018-04-24T21:24:02.901Z,17.70
2018-04-24T21:26:31.081Z,17.60
2018-04-24T21:28:59.245Z,17.50
2018-04-24T21:31:27.413Z,17.60
2018-04-24T21:33:55.598Z,17.50
2018-04-24T21:36:23.770Z,17.50
2018-04-24T21:38:51.964Z,17.50
2018-04-24T21:41:20.196Z,17.50
2018-04-24T21:43:48.329Z,17.40
2018-04-24T21:46:16.510Z,17.40
2018-04-24T21:48:45.449Z,17.30
2018-04-24T21:51:13.608Z,17.30
2018-04-24T21:53:41.788Z,17.30
2018-04-24T21:56:09.954Z,17.30
2018-04-24T21:58:38.127Z,17.30
2018-04-24T22:01:06.321Z,17.20
2018-04-24T22:03:34.513Z,17.10
2018-04-24T22:06:02.678Z,17.00
2018-04-24T22:08:30.850Z,17.00
2018-04-24T22:10:59.044Z,17.00
2018-04-24T22:13:27.300Z,17.00
2018-04-24T22:15:55.438Z,17.00
2018-04-24T22:18:24.373Z,17.00
2018-04-24T22:20:52.539Z,16.90
2018-04-24T22:23:20.742Z,17.00
2018-04-24T22:25:48.904Z,17.00
2018-04-24T22:28:17.064Z,16.90
2018-04-24T22:30:45.244Z,16.80
2018-04-24T22:33:13.453Z,16.80
2018-04-24T22:35:41.685Z,16.80
2018-04-24T22:38:09.865Z,16.70
2018-04-24T22:40:38.148Z,16.70
2018-04-24T22:43:06.261Z,16.70
2018-04-24T22:45:35.200Z,16.70
2018-04-24T22:48:03.361Z,16.60
2018-04-24T22:50:31.565Z,16.70
2018-04-24T22:52:59.738Z,16.60
2018-04-24T22:55:27.907Z,16.60
2018-04-24T22:57:56.177Z,16.50
2018-04-24T23:00:24.342Z,16.50
2018-04-24T23:02:52.528Z,16.50
2018-04-24T23:05:20.701Z,16.50
2018-04-24T23:07:48.873Z,16.40
2018-04-24T23:10:34.890Z,16.40
2018-04-24T23:13:20.941Z,16.40
2018-04-24T23:16:06.783Z,16.40
2018-04-24T23:18:52.717Z,16.40
2018-04-24T23:21:20.132Z,16.30
2018-04-24T23:23:48.298Z,16.30
2018-04-24T23:26:16.578Z,16.20
2018-04-24T23:28:44.704Z,16.20
2018-04-24T23:31:12.875Z,16.20
2018-04-24T23:33:41.077Z,16.20
2018-04-24T23:36:09.278Z,16.20
2018-04-24T23:38:37.440Z,16.10
2018-04-24T23:41:05.615Z,16.10
2018-04-24T23:43:33.797Z,16.10
2018-04-24T23:46:01.961Z,16.00
2018-04-24T23:48:30.133Z,16.00
2018-04-24T23:50:58.300Z,16.00
2018-04-24T23:53:26.474Z,16.00
2018-04-24T23:55:54.658Z,16.00
2018-04-24T23:58:22.827Z,15.90
